Time;durP1;ratioP1;P1;durP2;ratioP2;P2;SDS_P1;SDS_P2;PMS_P1;PMS_P2;Temp;Humidity;BMP_temperature;BMP_pressure;BME280_temperature;BME280_humidity;BME280_pressure;Samples;Min_cycle;Max_cycle;Signal;HPM_P1;HPM_P2
2022/07/02 00:00:13;;;;;;;;;;;13.20;97.10;;;;;;5033798;28;19921;-72
2022/07/02 00:02:41;;;;;;;;;;;13.20;98.30;;;;;;5034933;28;19921;-72
2022/07/02 00:05:11;;;;;;;;;;;13.20;97.80;;;;;;5034931;28;19921;-72
2022/07/02 00:07:39;;;;;;;;;;;13.10;98.00;;;;;;5033922;28;19928;-72
2022/07/02 00:10:06;;;;;;;;;;;13.20;98.10;;;;;;5035032;28;19920;-72
2022/07/02 00:12:33;;;;;;;;;;;13.10;98.30;;;;;;5034871;28;19921;-72
2022/07/02 00:15:01;;;;;;;;;;;13.10;98.50;;;;;;5033621;28;19943;-73
2022/07/02 00:17:28;;;;;;;;;;;13.10;98.90;;;;;;5035282;28;19921;-72
2022/07/02 00:19:56;;;;;;;;;;;13.10;99.90;;;;;;5033979;28;19928;-72
2022/07/02 00:22:23;;;;;;;;;;;13.10;99.60;;;;;;5017436;28;20378;-72
2022/07/02 00:24:50;;;;;;;;;;;13.10;99.90;;;;;;5035018;28;19921;-72
2022/07/02 00:27:18;;;;;;;;;;;13.10;99.90;;;;;;5033668;28;20260;-72
2022/07/02 00:29:49;;;;;;;;;;;13.10;99.90;;;;;;5034649;28;19928;-72
2022/07/02 00:32:16;;;;;;;;;;;13.10;99.90;;;;;;5034692;28;19928;-72
2022/07/02 00:34:44;;;;;;;;;;;13.10;99.90;;;;;;5016534;28;20344;-72
2022/07/02 00:37:12;;;;;;;;;;;13.10;99.90;;;;;;5017328;28;19928;-72
2022/07/02 00:39:40;;;;;;;;;;;13.10;99.90;;;;;;5034558;28;19940;-73
2022/07/02 00:42:08;;;;;;;;;;;13.00;99.90;;;;;;5033511;28;19925;-72
2022/07/02 00:44:36;;;;;;;;;;;13.00;99.90;;;;;;5035278;28;19921;-72
2022/07/02 00:47:06;;;;;;;;;;;13.00;99.90;;;;;;5033419;28;19940;-72
2022/07/02 00:49:34;;;;;;;;;;;13.10;99.90;;;;;;5034888;28;20348;-72
2022/07/02 00:52:02;;;;;;;;;;;13.00;99.90;;;;;;5017505;28;20356;-73
2022/07/02 00:54:29;;;;;;;;;;;13.00;99.90;;;;;;5033469;28;19922;-73
2022/07/02 00:56:57;;;;;;;;;;;13.00;99.90;;;;;;5034814;28;19932;-72
2022/07/02 00:59:25;;;;;;;;;;;13.00;99.90;;;;;;5038085;28;19921;-72
2022/07/02 01:01:52;;;;;;;;;;;13.00;99.90;;;;;;5019816;28;19921;-72
2022/07/02 01:04:20;;;;;;;;;;;13.00;99.90;;;;;;5038288;28;19921;-72
2022/07/02 01:06:48;;;;;;;;;;;12.80;99.90;;;;;;5036951;28;19925;-73
2022/07/02 01:12:03;;;;;;;;;;;12.90;99.90;;;;;;5038335;28;19927;-72
2022/07/02 01:14:30;;;;;;;;;;;12.90;99.90;;;;;;5037272;28;20352;-72
2022/07/02 01:16:58;;;;;;;;;;;12.90;99.90;;;;;;5038219;28;19925;-72
2022/07/02 01:19:26;;;;;;;;;;;12.80;99.90;;;;;;5037811;28;20327;-72
2022/07/02 01:22:09;;;;;;;;;;;12.80;99.90;;;;;;5036572;28;19947;-72
2022/07/02 01:24:37;;;;;;;;;;;12.70;99.90;;;;;;5020418;28;19928;-72
2022/07/02 01:27:05;;;;;;;;;;;12.70;99.90;;;;;;5036475;28;19928;-72
2022/07/02 01:29:32;;;;;;;;;;;12.70;99.90;;;;;;5037723;28;19921;-72
2022/07/02 01:32:00;;;;;;;;;;;12.60;99.90;;;;;;5037743;28;19921;-73
2022/07/02 01:34:28;;;;;;;;;;;12.60;99.90;;;;;;5036724;28;19929;-72
2022/07/02 01:36:55;;;;;;;;;;;12.60;99.90;;;;;;5020502;28;19936;-72
2022/07/02 01:39:23;;;;;;;;;;;12.60;99.90;;;;;;5020486;28;19927;-72
2022/07/02 01:41:51;;;;;;;;;;;12.50;99.90;;;;;;5036227;28;19920;-72
2022/07/02 01:44:19;;;;;;;;;;;12.50;99.90;;;;;;5037457;28;19944;-72
2022/07/02 01:46:47;;;;;;;;;;;12.50;99.90;;;;;;5036104;28;19928;-73
2022/07/02 01:49:14;;;;;;;;;;;12.50;99.90;;;;;;5037235;28;20378;-72
2022/07/02 01:51:41;;;;;;;;;;;12.50;99.90;;;;;;5037444;28;19928;-73
2022/07/02 01:54:09;;;;;;;;;;;12.50;99.90;;;;;;5036304;28;19925;-72
2022/07/02 01:56:37;;;;;;;;;;;12.40;99.90;;;;;;5037016;28;19921;-73
2022/07/02 01:59:04;;;;;;;;;;;12.50;99.90;;;;;;5019733;28;19946;-73
2022/07/02 02:01:32;;;;;;;;;;;12.40;99.90;;;;;;5035915;28;19929;-73
2022/07/02 02:03:59;;;;;;;;;;;12.40;99.90;;;;;;5037240;28;19925;-72
2022/07/02 02:06:27;;;;;;;;;;;12.40;99.90;;;;;;5035835;28;20363;-73
2022/07/02 02:08:55;;;;;;;;;;;12.50;99.90;;;;;;5018591;28;19943;-72
2022/07/02 02:11:22;;;;;;;;;;;12.40;99.90;;;;;;5036998;28;20263;-73
2022/07/02 02:13:49;;;;;;;;;;;12.40;99.90;;;;;;5035618;28;20038;-72
2022/07/02 02:16:17;;;;;;;;;;;12.40;99.90;;;;;;5036543;28;20347;-73
2022/07/02 02:18:44;;;;;;;;;;;12.40;99.90;;;;;;5036878;28;19928;-73
2022/07/02 02:21:12;;;;;;;;;;;12.40;99.90;;;;;;5035571;28;19921;-73
2022/07/02 02:23:39;;;;;;;;;;;12.40;99.90;;;;;;5019612;28;19925;-73
2022/07/02 02:26:06;;;;;;;;;;;12.40;99.90;;;;;;5036457;28;20256;-73
2022/07/02 02:28:34;;;;;;;;;;;12.40;99.90;;;;;;5035314;28;19925;-73
2022/07/02 02:31:01;;;;;;;;;;;12.30;99.90;;;;;;5036560;28;19920;-72
2022/07/02 02:33:28;;;;;;;;;;;12.30;99.90;;;;;;5035577;28;19921;-73
2022/07/02 02:35:56;;;;;;;;;;;12.30;99.90;;;;;;5036279;28;19928;-73
2022/07/02 02:38:24;;;;;;;;;;;12.30;99.90;;;;;;5036285;28;20367;-72
2022/07/02 02:40:51;;;;;;;;;;;12.30;99.90;;;;;;5034886;28;19940;-72
2022/07/02 02:43:19;;;;;;;;;;;12.20;99.90;;;;;;5036820;28;19921;-73
2022/07/02 02:45:46;;;;;;;;;;;12.20;99.90;;;;;;5036126;28;19928;-72
2022/07/02 02:48:13;;;;;;;;;;;12.10;99.90;;;;;;5017853;28;19921;-73
2022/07/02 02:50:41;;;;;;;;;;;12.10;99.90;;;;;;5036109;28;19921;-73
2022/07/02 02:53:08;;;;;;;;;;;12.10;99.90;;;;;;5034986;28;19943;-73
2022/07/02 02:55:35;;;;;;;;;;;12.00;99.90;;;;;;5036065;28;20264;-73
2022/07/02 02:58:03;;;;;;;;;;;12.00;99.90;;;;;;5035834;28;19921;-73
2022/07/02 03:00:30;;;;;;;;;;;12.00;99.90;;;;;;5017654;28;19920;-73
2022/07/02 03:02:57;;;;;;;;;;;12.00;99.90;;;;;;5035980;28;19921;-72
2022/07/02 03:05:25;;;;;;;;;;;11.90;99.90;;;;;;5035770;28;19928;-72
2022/07/02 03:07:53;;;;;;;;;;;11.90;99.90;;;;;;5034658;28;19928;-72
2022/07/02 03:10:21;;;;;;;;;;;11.90;99.90;;;;;;5035588;28;19928;-72
2022/07/02 03:12:48;;;;;;;;;;;11.90;99.90;;;;;;5036074;28;20382;-73
2022/07/02 03:15:15;;;;;;;;;;;11.80;99.90;;;;;;5034310;28;19921;-73
2022/07/02 03:17:43;;;;;;;;;;;11.80;99.90;;;;;;5035647;28;19928;-72
2022/07/02 03:20:10;;;;;;;;;;;11.80;99.90;;;;;;5034241;28;19928;-73
2022/07/02 03:22:38;;;;;;;;;;;11.80;99.90;;;;;;5035376;28;19921;-72
2022/07/02 03:25:06;;;;;;;;;;;11.80;99.90;;;;;;5035472;28;19947;-72
2022/07/02 03:27:34;;;;;;;;;;;11.80;99.90;;;;;;5034570;28;19928;-72
2022/07/02 03:30:01;;;;;;;;;;;11.80;99.90;;;;;;5035486;28;19921;-72
2022/07/02 03:32:29;;;;;;;;;;;11.80;99.90;;;;;;5035464;28;19921;-73
2022/07/02 03:34:56;;;;;;;;;;;11.80;99.90;;;;;;5017000;28;19921;-73
2022/07/02 03:37:26;;;;;;;;;;;11.70;99.90;;;;;;5035163;28;19921;-73
2022/07/02 03:39:54;;;;;;;;;;;11.70;99.90;;;;;;5034291;28;19928;-73
2022/07/02 03:42:21;;;;;;;;;;;11.70;99.90;;;;;;5017855;28;20280;-73
2022/07/02 03:44:49;;;;;;;;;;;11.70;99.90;;;;;;5035249;28;19921;-72
2022/07/02 03:47:16;;;;;;;;;;;11.70;99.90;;;;;;5016630;28;19921;-72
2022/07/02 03:49:43;;;;;;;;;;;11.70;99.90;;;;;;5034996;28;19921;-72
2022/07/02 03:52:11;;;;;;;;;;;11.80;99.90;;;;;;5035064;28;19928;-72
2022/07/02 03:54:38;;;;;;;;;;;11.70;99.90;;;;;;5034132;28;20367;-73
2022/07/02 03:57:06;;;;;;;;;;;11.80;99.90;;;;;;5034934;28;20365;-73
2022/07/02 03:59:33;;;;;;;;;;;11.70;99.90;;;;;;5035062;28;19945;-73
2022/07/02 04:02:01;;;;;;;;;;;11.70;99.90;;;;;;5033711;28;19928;-73
2022/07/02 04:04:28;;;;;;;;;;;11.70;99.90;;;;;;5035382;28;19921;-73
2022/07/02 04:06:56;;;;;;;;;;;11.70;99.90;;;;;;5033796;28;19928;-72
2022/07/02 04:09:23;;;;;;;;;;;11.70;99.90;;;;;;5034931;28;19921;-72
2022/07/02 04:11:50;;;;;;;;;;;11.70;99.90;;;;;;5035135;28;19932;-73
2022/07/02 04:14:18;;;;;;;;;;;11.70;99.90;;;;;;5016602;28;19929;-72
2022/07/02 04:16:45;;;;;;;;;;;11.70;99.90;;;;;;5034596;28;19921;-73
2022/07/02 04:19:13;;;;;;;;;;;11.70;99.90;;;;;;5017414;28;20352;-72
2022/07/02 04:21:41;;;;;;;;;;;11.70;99.90;;;;;;5033580;28;19921;-72
2022/07/02 04:24:09;;;;;;;;;;;11.70;99.90;;;;;;5035122;28;20280;-72
2022/07/02 04:26:36;;;;;;;;;;;11.70;99.90;;;;;;5033753;28;19928;-72
2022/07/02 04:29:03;;;;;;;;;;;11.70;99.90;;;;;;5035452;28;19925;-72
2022/07/02 04:31:31;;;;;;;;;;;11.70;99.90;;;;;;5034659;28;19932;-73
2022/07/02 04:33:58;;;;;;;;;;;11.70;99.90;;;;;;5037303;28;19928;-72
2022/07/02 04:36:26;;;;;;;;;;;11.70;99.90;;;;;;5038576;28;19921;-72
2022/07/02 04:38:53;;;;;;;;;;;11.70;99.90;;;;;;5021323;28;19992;-73
2022/07/02 04:41:21;;;;;;;;;;;11.80;99.90;;;;;;5037338;28;19933;-73
2022/07/02 04:43:48;;;;;;;;;;;11.80;99.90;;;;;;5038582;28;19921;-72
2022/07/02 04:46:15;;;;;;;;;;;11.80;99.90;;;;;;5038658;28;19921;-72
2022/07/02 04:48:43;;;;;;;;;;;11.90;99.90;;;;;;5037261;28;19928;-73
2022/07/02 04:51:10;;;;;;;;;;;11.90;99.90;;;;;;5005242;28;20089;-73
2022/07/02 04:53:37;;;;;;;;;;;11.90;99.90;;;;;;5037482;28;19921;-73
2022/07/02 04:56:05;;;;;;;;;;;12.00;99.90;;;;;;5038252;28;19921;-73
2022/07/02 04:58:32;;;;;;;;;;;12.00;99.90;;;;;;5038291;28;19924;-73
2022/07/02 05:01:00;;;;;;;;;;;12.10;99.90;;;;;;5036921;28;19928;-73
2022/07/02 05:03:27;;;;;;;;;;;12.10;99.90;;;;;;5038161;28;19921;-73
2022/07/02 05:05:54;;;;;;;;;;;12.20;99.90;;;;;;5038087;28;19921;-73
2022/07/02 05:08:26;;;;;;;;;;;12.20;99.90;;;;;;5036755;28;19928;-73
2022/07/02 05:10:53;;;;;;;;;;;12.30;99.90;;;;;;5037803;28;19921;-73
2022/07/02 05:13:21;;;;;;;;;;;12.30;99.90;;;;;;5019884;28;19921;-73
2022/07/02 05:15:49;;;;;;;;;;;12.40;99.90;;;;;;5037406;28;19920;-73
2022/07/02 05:18:17;;;;;;;;;;;12.50;99.90;;;;;;5057618;28;19921;-72
2022/07/02 05:20:44;;;;;;;;;;;12.50;99.90;;;;;;5056533;28;19927;-73
2022/07/02 05:23:11;;;;;;;;;;;12.50;99.90;;;;;;5057603;28;19927;-73
2022/07/02 05:25:39;;;;;;;;;;;12.60;99.90;;;;;;5056852;28;19931;-73
2022/07/02 05:28:06;;;;;;;;;;;12.70;99.90;;;;;;5056699;28;20232;-73
2022/07/02 05:30:33;;;;;;;;;;;12.70;99.90;;;;;;5057766;28;19920;-73
2022/07/02 05:33:01;;;;;;;;;;;12.70;99.90;;;;;;5057459;28;19931;-73
2022/07/02 05:35:28;;;;;;;;;;;12.80;99.90;;;;;;5056572;28;19920;-73
2022/07/02 05:37:55;;;;;;;;;;;12.80;99.90;;;;;;5056430;28;19920;-73
2022/07/02 05:40:23;;;;;;;;;;;12.90;99.90;;;;;;5056285;28;19921;-73
2022/07/02 05:42:50;;;;;;;;;;;12.90;99.90;;;;;;5057291;28;19927;-73
2022/07/02 05:45:17;;;;;;;;;;;13.00;99.90;;;;;;5057174;28;19936;-73
2022/07/02 05:47:45;;;;;;;;;;;13.20;99.90;;;;;;5056090;28;19920;-72
2022/07/02 05:50:12;;;;;;;;;;;13.20;99.90;;;;;;5039935;28;19921;-73
2022/07/02 05:52:40;;;;;;;;;;;13.30;99.90;;;;;;5057262;28;19927;-73
2022/07/02 05:55:07;;;;;;;;;;;13.30;99.90;;;;;;5056060;28;19921;-73
2022/07/02 05:57:35;;;;;;;;;;;13.40;99.90;;;;;;5057062;28;19921;-73
2022/07/02 06:00:03;;;;;;;;;;;13.70;99.90;;;;;;5055397;28;19920;-73
2022/07/02 06:02:30;;;;;;;;;;;13.50;99.90;;;;;;5055884;28;19920;-73
2022/07/02 06:04:58;;;;;;;;;;;13.60;99.90;;;;;;5056262;28;19920;-73
2022/07/02 06:07:40;;;;;;;;;;;13.70;99.90;;;;;;5055701;28;19925;-73
2022/07/02 06:10:08;;;;;;;;;;;13.70;99.90;;;;;;5057071;28;19920;-73
2022/07/02 06:12:36;;;;;;;;;;;13.80;99.90;;;;;;5056726;28;19921;-72
2022/07/02 06:15:04;;;;;;;;;;;13.90;99.90;;;;;;5054599;28;19924;-72
2022/07/02 06:17:31;;;;;;;;;;;13.90;99.90;;;;;;5056574;28;19932;-72
2022/07/02 06:19:58;;;;;;;;;;;13.90;99.90;;;;;;5055487;28;19928;-73
2022/07/02 06:22:26;;;;;;;;;;;14.00;99.90;;;;;;5056401;28;19932;-73
2022/07/02 06:24:55;;;;;;;;;;;14.00;99.90;;;;;;5055773;28;19920;-73
2022/07/02 06:27:23;;;;;;;;;;;14.10;99.90;;;;;;5055265;28;19920;-73
2022/07/02 06:29:50;;;;;;;;;;;14.10;99.90;;;;;;5056356;28;19927;-73
2022/07/02 06:32:17;;;;;;;;;;;14.10;99.90;;;;;;5056071;28;19924;-73
2022/07/02 06:34:45;;;;;;;;;;;14.20;99.90;;;;;;5055276;28;19921;-73
2022/07/02 06:37:12;;;;;;;;;;;14.20;99.90;;;;;;5056291;28;19921;-73
2022/07/02 06:39:40;;;;;;;;;;;14.20;99.90;;;;;;5056043;28;19921;-73
2022/07/02 06:42:19;;;;;;;;;;;14.20;99.90;;;;;;5055173;28;19921;-73
2022/07/02 06:44:51;;;;;;;;;;;14.30;99.90;;;;;;5055209;28;19924;-73
2022/07/02 06:47:25;;;;;;;;;;;14.40;99.90;;;;;;5054098;28;19932;-73
2022/07/02 06:49:54;;;;;;;;;;;14.50;99.90;;;;;;5055951;28;20355;-73
2022/07/02 06:52:22;;;;;;;;;;;14.60;99.90;;;;;;5055875;28;20244;-73
2022/07/02 06:54:49;;;;;;;;;;;14.70;99.90;;;;;;5053346;28;20275;-73
2022/07/02 06:57:16;;;;;;;;;;;14.70;99.90;;;;;;5055735;28;20279;-73
2022/07/02 06:59:52;;;;;;;;;;;14.90;99.90;;;;;;5055250;28;19925;-73
2022/07/02 07:02:20;;;;;;;;;;;14.90;99.90;;;;;;5055834;28;19921;-73
2022/07/02 07:04:47;;;;;;;;;;;15.00;99.90;;;;;;5055173;28;19932;-73
2022/07/02 07:07:16;;;;;;;;;;;15.10;99.90;;;;;;5053974;28;19921;-73
2022/07/02 07:09:43;;;;;;;;;;;15.20;99.90;;;;;;5055183;28;19921;-73
2022/07/02 07:12:11;;;;;;;;;;;15.30;99.90;;;;;;5037902;28;19920;-72
2022/07/02 07:14:38;;;;;;;;;;;15.40;99.90;;;;;;5053809;28;19920;-73
2022/07/02 07:17:06;;;;;;;;;;;15.50;99.90;;;;;;5035394;28;19928;-73
2022/07/02 07:19:34;;;;;;;;;;;15.60;99.90;;;;;;5035405;28;19927;-73
2022/07/02 07:22:01;;;;;;;;;;;15.70;99.90;;;;;;5034243;28;19924;-73
2022/07/02 07:24:29;;;;;;;;;;;15.80;99.90;;;;;;5018174;28;19928;-74
2022/07/02 07:26:59;;;;;;;;;;;15.90;99.90;;;;;;5034103;28;19921;-73
2022/07/02 07:29:26;;;;;;;;;;;15.90;99.60;;;;;;5035360;28;19921;-73
2022/07/02 07:31:54;;;;;;;;;;;16.00;99.00;;;;;;5035039;28;19921;-73
2022/07/02 07:34:22;;;;;;;;;;;16.10;98.70;;;;;;5033991;28;19944;-73
2022/07/02 07:36:51;;;;;;;;;;;16.20;98.30;;;;;;5034763;28;19921;-73
2022/07/02 07:39:18;;;;;;;;;;;16.20;97.30;;;;;;5034898;28;19928;-73
2022/07/02 07:41:46;;;;;;;;;;;16.40;96.80;;;;;;5016664;28;19921;-73
2022/07/02 07:44:13;;;;;;;;;;;16.40;96.70;;;;;;5034945;28;19921;-73
2022/07/02 07:46:40;;;;;;;;;;;16.60;96.80;;;;;;5033762;28;19921;-74
2022/07/02 07:49:08;;;;;;;;;;;16.80;95.50;;;;;;5034819;28;19928;-73
2022/07/02 07:51:37;;;;;;;;;;;17.00;94.30;;;;;;5034562;28;19921;-74
2022/07/02 07:54:05;;;;;;;;;;;17.20;94.40;;;;;;5033872;28;19939;-73
2022/07/02 07:56:32;;;;;;;;;;;17.30;94.10;;;;;;5034822;28;19932;-73
2022/07/02 07:58:59;;;;;;;;;;;17.50;93.10;;;;;;5034762;28;19921;-73
2022/07/02 08:01:27;;;;;;;;;;;17.60;93.40;;;;;;5027677;28;19925;-73
2022/07/02 08:03:55;;;;;;;;;;;17.70;91.90;;;;;;4998804;28;19920;-73
2022/07/02 08:06:22;;;;;;;;;;;17.90;91.50;;;;;;5034145;28;19925;-73
2022/07/02 08:08:50;;;;;;;;;;;18.00;91.10;;;;;;5020408;28;19921;-73
2022/07/02 08:11:17;;;;;;;;;;;18.10;91.00;;;;;;5038829;28;19921;-73
2022/07/02 08:13:45;;;;;;;;;;;18.30;91.00;;;;;;5020584;28;19921;-73
2022/07/02 08:16:12;;;;;;;;;;;18.40;90.40;;;;;;5044282;28;19920;-73
2022/07/02 08:18:39;;;;;;;;;;;18.60;90.50;;;;;;5057831;28;19924;-73
2022/07/02 08:21:07;;;;;;;;;;;18.80;89.40;;;;;;5056813;28;19996;-73
2022/07/02 08:23:34;;;;;;;;;;;19.00;88.70;;;;;;5059202;28;19920;-73
2022/07/02 08:26:01;;;;;;;;;;;19.10;87.20;;;;;;5058783;28;19920;-73
2022/07/02 08:28:29;;;;;;;;;;;19.10;87.70;;;;;;5057530;28;19928;-73
2022/07/02 08:30:56;;;;;;;;;;;19.10;88.20;;;;;;5057642;28;19920;-73
2022/07/02 08:33:24;;;;;;;;;;;19.10;86.90;;;;;;5057963;28;20164;-73
2022/07/02 08:35:51;;;;;;;;;;;19.10;85.50;;;;;;5058912;28;19921;-73
2022/07/02 08:38:18;;;;;;;;;;;19.00;85.60;;;;;;5058407;28;19943;-73
2022/07/02 08:40:46;;;;;;;;;;;19.00;85.40;;;;;;5057332;28;19920;-73
2022/07/02 08:43:15;;;;;;;;;;;19.00;85.60;;;;;;5047063;28;19921;-74
2022/07/02 08:45:42;;;;;;;;;;;19.00;85.30;;;;;;5038528;28;20291;-74
2022/07/02 08:48:11;;;;;;;;;;;19.10;84.20;;;;;;5037159;28;19921;-74
2022/07/02 08:50:39;;;;;;;;;;;19.10;84.50;;;;;;5052004;28;19931;-73
2022/07/02 08:53:07;;;;;;;;;;;19.10;84.80;;;;;;5057944;28;20247;-73
2022/07/02 08:55:35;;;;;;;;;;;19.20;82.70;;;;;;5040712;28;20221;-74
2022/07/02 08:58:03;;;;;;;;;;;19.30;82.70;;;;;;5057754;28;19921;-73
2022/07/02 09:00:31;;;;;;;;;;;19.30;81.70;;;;;;5057006;28;20236;-73
2022/07/02 09:02:59;;;;;;;;;;;19.40;82.20;;;;;;5058075;28;19921;-73
2022/07/02 09:05:27;;;;;;;;;;;19.40;81.80;;;;;;5057222;28;19943;-73
2022/07/02 09:07:56;;;;;;;;;;;19.50;80.30;;;;;;5056129;28;19920;-73
2022/07/02 09:10:24;;;;;;;;;;;19.50;81.00;;;;;;5057289;28;20339;-74
2022/07/02 09:12:53;;;;;;;;;;;19.60;80.20;;;;;;5058265;28;19927;-74
2022/07/02 09:15:21;;;;;;;;;;;19.70;79.70;;;;;;5050416;28;19921;-74
2022/07/02 09:17:49;;;;;;;;;;;19.90;79.60;;;;;;5037245;28;19921;-74
2022/07/02 09:20:16;;;;;;;;;;;19.90;80.00;;;;;;5019492;28;19921;-74
2022/07/02 09:22:48;;;;;;;;;;;20.10;78.60;;;;;;5037483;28;19925;-73
2022/07/02 09:25:16;;;;;;;;;;;20.20;78.30;;;;;;5038268;28;19921;-73
2022/07/02 09:27:44;;;;;;;;;;;20.20;77.90;;;;;;5019287;28;19925;-75
2022/07/02 09:30:15;;;;;;;;;;;20.10;76.30;;;;;;5034240;28;20276;-74
2022/07/02 09:32:46;;;;;;;;;;;20.10;77.80;;;;;;5018206;28;20261;-74
2022/07/02 09:35:17;;;;;;;;;;;20.20;76.70;;;;;;5016557;28;19936;-74
2022/07/02 09:37:45;;;;;;;;;;;20.10;75.60;;;;;;5017590;28;19925;-74
2022/07/02 09:40:13;;;;;;;;;;;20.10;76.60;;;;;;4999559;28;19932;-74
2022/07/02 09:42:43;;;;;;;;;;;20.20;76.90;;;;;;5017581;28;19928;-74
2022/07/02 09:45:11;;;;;;;;;;;20.30;77.20;;;;;;5001070;28;19921;-73
2022/07/02 09:47:40;;;;;;;;;;;20.30;76.60;;;;;;4999311;28;19921;-73
2022/07/02 09:50:08;;;;;;;;;;;20.40;75.60;;;;;;5017528;28;19929;-73
2022/07/02 09:52:37;;;;;;;;;;;20.50;74.80;;;;;;5017985;28;19922;-73
2022/07/02 09:55:04;;;;;;;;;;;20.50;75.40;;;;;;5016201;28;19921;-73
2022/07/02 09:57:47;;;;;;;;;;;20.60;74.60;;;;;;5017430;28;20260;-73
2022/07/02 10:00:15;;;;;;;;;;;20.70;74.90;;;;;;4998927;28;19928;-73
2022/07/02 10:02:42;;;;;;;;;;;20.70;73.80;;;;;;5017101;28;19932;-73
2022/07/02 10:05:09;;;;;;;;;;;20.80;74.00;;;;;;5017058;28;19922;-73
2022/07/02 10:07:37;;;;;;;;;;;20.80;72.40;;;;;;5016390;28;19940;-73
2022/07/02 10:10:05;;;;;;;;;;;20.80;72.30;;;;;;5016973;28;19928;-74
2022/07/02 10:12:33;;;;;;;;;;;20.80;72.50;;;;;;5017220;28;19921;-73
2022/07/02 10:15:04;;;;;;;;;;;20.80;72.40;;;;;;5015702;28;20355;-73
2022/07/02 10:17:32;;;;;;;;;;;20.90;72.90;;;;;;5017326;28;19925;-73
2022/07/02 10:20:01;;;;;;;;;;;20.90;72.60;;;;;;5015880;28;19928;-73
2022/07/02 10:22:30;;;;;;;;;;;20.90;71.70;;;;;;5017176;28;19921;-73
2022/07/02 10:24:57;;;;;;;;;;;20.80;72.40;;;;;;5016591;28;19929;-73
2022/07/02 10:27:24;;;;;;;;;;;20.80;73.90;;;;;;5015735;28;19928;-73
2022/07/02 10:29:52;;;;;;;;;;;20.90;72.70;;;;;;4998834;28;19940;-73
2022/07/02 10:32:29;;;;;;;;;;;20.80;73.20;;;;;;4983461;28;19921;-72
2022/07/02 10:35:05;;;;;;;;;;;20.80;72.90;;;;;;5015723;28;19922;-73
2022/07/02 10:37:32;;;;;;;;;;;20.90;72.60;;;;;;5016645;28;19922;-73
2022/07/02 10:40:01;;;;;;;;;;;20.90;72.50;;;;;;5015331;28;19921;-73
2022/07/02 10:42:39;;;;;;;;;;;20.80;73.20;;;;;;5016390;28;20391;-73
2022/07/02 10:45:09;;;;;;;;;;;20.90;71.90;;;;;;5016774;28;19922;-72
2022/07/02 10:47:37;;;;;;;;;;;21.00;72.00;;;;;;5015589;28;19925;-73
2022/07/02 10:50:04;;;;;;;;;;;21.10;71.10;;;;;;5016444;28;19932;-73
2022/07/02 10:52:38;;;;;;;;;;;21.20;70.20;;;;;;5016459;28;19921;-73
2022/07/02 10:55:06;;;;;;;;;;;21.20;70.80;;;;;;4997937;28;19928;-73
2022/07/02 10:57:33;;;;;;;;;;;21.20;69.40;;;;;;5016225;28;20032;-73
2022/07/02 11:00:02;;;;;;;;;;;21.30;70.20;;;;;;5014961;28;19921;-73
2022/07/02 11:02:33;;;;;;;;;;;20.80;69.90;;;;;;5016224;28;19929;-74
2022/07/02 11:05:20;;;;;;;;;;;21.30;70.00;;;;;;5016188;28;19921;-70
2022/07/02 11:07:48;;;;;;;;;;;21.40;70.70;;;;;;5015207;28;19928;-73
2022/07/02 11:10:16;;;;;;;;;;;21.50;70.80;;;;;;5015967;28;19922;-73
2022/07/02 11:12:51;;;;;;;;;;;21.50;70.40;;;;;;5015960;28;19921;-74
2022/07/02 11:15:21;;;;;;;;;;;21.80;71.10;;;;;;5014703;28;19921;-73
2022/07/02 11:17:51;;;;;;;;;;;21.80;70.10;;;;;;5016534;28;19932;-73
2022/07/02 11:20:22;;;;;;;;;;;21.90;70.80;;;;;;5014712;28;19928;-72
2022/07/02 11:22:49;;;;;;;;;;;22.00;70.00;;;;;;5016123;28;19921;-73
2022/07/02 11:25:17;;;;;;;;;;;22.10;69.20;;;;;;5015662;28;19921;-72
2022/07/02 11:27:54;;;;;;;;;;;22.10;70.40;;;;;;5014642;28;19997;-73
2022/07/02 11:30:31;;;;;;;;;;;22.00;69.50;;;;;;5015657;28;19928;-73
2022/07/02 11:32:59;;;;;;;;;;;21.80;68.80;;;;;;5015599;28;19921;-73
2022/07/02 11:35:26;;;;;;;;;;;21.80;69.10;;;;;;5014437;28;19928;-73
2022/07/02 11:37:57;;;;;;;;;;;21.70;69.40;;;;;;4998550;28;19921;-73
2022/07/02 11:40:25;;;;;;;;;;;21.60;70.00;;;;;;4997207;28;19944;-73
2022/07/02 11:42:53;;;;;;;;;;;21.50;70.20;;;;;;4998744;28;20383;-73
2022/07/02 11:45:20;;;;;;;;;;;21.50;69.20;;;;;;5015374;28;19928;-73
2022/07/02 11:47:48;;;;;;;;;;;21.40;69.70;;;;;;5014313;28;19921;-73
2022/07/02 11:50:28;;;;;;;;;;;21.40;69.40;;;;;;5015341;28;19921;-73
2022/07/02 11:52:56;;;;;;;;;;;21.50;69.20;;;;;;4998320;28;19925;-72
2022/07/02 11:55:24;;;;;;;;;;;21.60;69.30;;;;;;5013581;28;19932;-70
2022/07/02 11:57:51;;;;;;;;;;;21.60;69.30;;;;;;4997899;28;19921;-71
2022/07/02 12:00:19;;;;;;;;;;;21.70;69.20;;;;;;5013966;28;19928;-68
2022/07/02 12:02:47;;;;;;;;;;;21.80;69.00;;;;;;5014391;28;20268;-69
2022/07/02 12:05:16;;;;;;;;;;;21.80;68.80;;;;;;5014823;28;19944;-69
2022/07/02 12:07:43;;;;;;;;;;;21.70;68.50;;;;;;5013919;28;20273;-69
2022/07/02 12:10:11;;;;;;;;;;;21.80;70.00;;;;;;5014729;28;19928;-70
2022/07/02 12:12:39;;;;;;;;;;;21.80;69.50;;;;;;5014887;28;20256;-69
2022/07/02 12:15:07;;;;;;;;;;;21.90;70.20;;;;;;5017578;28;19925;-69
2022/07/02 12:17:35;;;;;;;;;;;22.00;68.80;;;;;;5018271;28;19933;-71
2022/07/02 12:20:04;;;;;;;;;;;22.10;69.70;;;;;;4996498;28;20348;-70
2022/07/02 12:22:33;;;;;;;;;;;22.20;69.80;;;;;;5024791;28;19921;-72
2022/07/02 12:25:01;;;;;;;;;;;22.40;69.10;;;;;;5034445;28;19928;-71
2022/07/02 12:27:29;;;;;;;;;;;22.50;70.30;;;;;;5032468;28;19921;-71
2022/07/02 12:30:14;;;;;;;;;;;22.50;68.80;;;;;;5034641;28;19921;-73
2022/07/02 12:32:50;;;;;;;;;;;22.60;68.70;;;;;;5034397;28;20268;-71
2022/07/02 12:35:18;;;;;;;;;;;22.50;68.50;;;;;;5016142;28;19932;-70
2022/07/02 12:37:49;;;;;;;;;;;22.50;68.30;;;;;;5033962;28;19932;-71
2022/07/02 12:40:18;;;;;;;;;;;22.50;68.90;;;;;;5033713;28;19928;-73
2022/07/02 12:42:49;;;;;;;;;;;22.60;69.00;;;;;;5033755;28;19921;-73
2022/07/02 12:45:25;;;;;;;;;;;22.70;68.70;;;;;;5034903;28;19921;-73
2022/07/02 12:47:59;;;;;;;;;;;22.60;68.20;;;;;;5033798;28;20362;-73
2022/07/02 12:50:30;;;;;;;;;;;22.60;69.70;;;;;;5034777;28;19927;-73
2022/07/02 12:53:04;;;;;;;;;;;22.70;68.70;;;;;;5018503;28;20228;-72
2022/07/02 12:55:33;;;;;;;;;;;22.80;68.40;;;;;;5021125;28;20347;-73
2022/07/02 12:58:05;;;;;;;;;;;22.90;68.00;;;;;;5038433;28;20283;-72
2022/07/02 13:00:34;;;;;;;;;;;23.20;67.70;;;;;;5037307;28;19921;-73
2022/07/02 13:03:02;;;;;;;;;;;23.30;66.80;;;;;;5021270;28;20347;-74
2022/07/02 13:05:31;;;;;;;;;;;23.30;68.30;;;;;;5038426;28;19921;-73
2022/07/02 13:07:58;;;;;;;;;;;23.40;67.30;;;;;;5003680;28;19928;-73
2022/07/02 13:10:26;;;;;;;;;;;23.30;68.50;;;;;;5020675;28;20221;-74
2022/07/02 13:12:53;;;;;;;;;;;23.40;69.30;;;;;;5020952;28;19921;-75
2022/07/02 13:15:21;;;;;;;;;;;23.50;67.30;;;;;;5019965;28;19921;-74
2022/07/02 13:17:48;;;;;;;;;;;23.50;67.00;;;;;;5038230;28;19921;-73
2022/07/02 13:20:16;;;;;;;;;;;23.50;66.70;;;;;;5037315;28;19921;-74
2022/07/02 13:22:43;;;;;;;;;;;23.50;67.30;;;;;;5037926;28;19924;-69
2022/07/02 13:25:11;;;;;;;;;;;23.50;67.20;;;;;;5020671;28;20340;-71
2022/07/02 13:27:39;;;;;;;;;;;23.70;66.30;;;;;;5037027;28;19921;-69
2022/07/02 13:30:08;;;;;;;;;;;24.40;65.40;;;;;;5037431;28;19921;-69
2022/07/02 13:32:36;;;;;;;;;;;25.30;63.90;;;;;;5020077;28;19936;-68
2022/07/02 13:35:04;;;;;;;;;;;26.60;62.50;;;;;;5036258;28;19932;-69
2022/07/02 13:37:31;;;;;;;;;;;27.70;59.80;;;;;;5037863;28;19921;-69
2022/07/02 13:40:04;;;;;;;;;;;28.10;57.70;;;;;;5019061;28;19925;-70
2022/07/02 13:42:33;;;;;;;;;;;28.30;57.70;;;;;;5028982;28;20402;-68
2022/07/02 13:45:00;;;;;;;;;;;28.40;56.50;;;;;;5000047;28;19932;-69
2022/07/02 13:47:27;;;;;;;;;;;28.80;56.60;;;;;;4999014;28;19922;-68
2022/07/02 13:49:55;;;;;;;;;;;29.20;55.00;;;;;;5017367;28;19921;-71
2022/07/02 13:52:22;;;;;;;;;;;29.60;54.90;;;;;;5017433;28;19922;-69
2022/07/02 13:54:50;;;;;;;;;;;29.90;54.80;;;;;;5016247;28;19922;-69
2022/07/02 13:57:18;;;;;;;;;;;30.20;53.90;;;;;;5017375;28;19921;-68
2022/07/02 13:59:45;;;;;;;;;;;30.70;53.40;;;;;;5015631;28;19925;-69
2022/07/02 14:02:13;;;;;;;;;;;30.90;52.30;;;;;;5017131;28;19921;-70
2022/07/02 14:04:41;;;;;;;;;;;31.20;53.10;;;;;;5017341;28;19929;-72
2022/07/02 14:07:09;;;;;;;;;;;31.60;51.30;;;;;;5015944;28;19921;-70
2022/07/02 14:09:36;;;;;;;;;;;32.10;51.70;;;;;;5016951;28;19921;-69
2022/07/02 14:12:05;;;;;;;;;;;32.40;51.20;;;;;;5017158;28;19933;-68
2022/07/02 14:14:33;;;;;;;;;;;32.60;50.80;;;;;;5015383;28;19958;-68
2022/07/02 14:17:00;;;;;;;;;;;33.20;50.80;;;;;;5016719;28;20329;-69
2022/07/02 14:19:27;;;;;;;;;;;33.50;49.70;;;;;;5016856;28;19928;-69
2022/07/02 14:21:55;;;;;;;;;;;34.10;49.80;;;;;;5015694;28;19925;-69
2022/07/02 14:24:22;;;;;;;;;;;34.20;48.70;;;;;;5016729;28;19929;-70